Terminal Aerodrome Forecast
Issued by NWS Houston/Galveston, TX

Home | Current Version | Previous Version | Text Only | Print | Product List | Glossary On
Versions: 1 2 3 4 5 6 7 8 9 10 11 12 13 14 15 16 17 18 19 20 21 22 23 24 25 26 27 28 29 30 31 32 33 34 35 36 37 38 39 40 41 42 43 44 45 46
000
FTUS44 KHGX 051607 AAC
TAFCLL
TAF AMD
KCLL 051607Z 0516/0612 18008KT P6SM VCSH SCT024 SCT035
     FM051800 18010KT P6SM VCTS BKN045CB
      TEMPO 0518/0521 TSRA
     FM060100 16007KT P6SM FEW040 SCT250
     FM061000 19004KT P6SM SCT005 BKN012
      TEMPO 0610/0612 5SM BR=

USA.gov is the U.S. government's official web portal to all federal, state and local government web resources and services.